createdAt,value
2023-04-27T00:00:22.442Z,1.30
2023-04-27T00:01:23.348Z,1.20
2023-04-27T00:02:24.402Z,1.20
2023-04-27T00:03:25.057Z,1.20
2023-04-27T00:04:25.772Z,1.10
2023-04-27T00:05:26.262Z,1.20
2023-04-27T00:06:27.178Z,1.20
2023-04-27T00:07:28.067Z,1.00
2023-04-27T00:08:28.957Z,1.30
2023-04-27T00:09:29.830Z,1.10
2023-04-27T00:10:30.759Z,1.00
2023-04-27T00:11:31.638Z,1.20
2023-04-27T00:12:32.504Z,1.20
2023-04-27T00:13:33.393Z,1.10
2023-04-27T00:14:34.275Z,1.30
2023-04-27T00:15:35.160Z,1.20
2023-04-27T00:16:36.094Z,1.30
2023-04-27T00:17:36.959Z,1.10
2023-04-27T00:18:37.828Z,1.50
2023-04-27T00:19:38.754Z,1.30
2023-04-27T00:20:39.587Z,1.30
2023-04-27T00:21:40.486Z,1.30
2023-04-27T00:22:41.366Z,1.40
2023-04-27T00:23:42.267Z,1.40
2023-04-27T00:24:43.130Z,1.30
2023-04-27T00:25:44.015Z,1.30
2023-04-27T00:26:44.902Z,1.30
2023-04-27T00:27:45.787Z,1.30
2023-04-27T00:28:46.666Z,1.40
2023-04-27T00:29:47.581Z,1.40
2023-04-27T00:30:48.450Z,1.40
2023-04-27T00:31:49.364Z,1.60
2023-04-27T00:32:50.249Z,1.30
2023-04-27T00:33:51.110Z,1.40
2023-04-27T00:34:52.009Z,1.30
2023-04-27T00:35:52.880Z,1.50
2023-04-27T00:36:53.758Z,1.50
2023-04-27T00:37:54.638Z,1.40
2023-04-27T00:38:55.519Z,1.40
2023-04-27T00:39:56.398Z,1.60
2023-04-27T00:40:57.285Z,1.30
2023-04-27T00:41:58.184Z,1.50
2023-04-27T00:42:59.067Z,1.30
2023-04-27T00:43:59.963Z,1.60
2023-04-27T00:45:00.825Z,1.40
2023-04-27T00:46:01.704Z,1.30
2023-04-27T00:47:02.597Z,1.30
2023-04-27T00:48:03.548Z,1.40
2023-04-27T00:49:04.414Z,1.40
2023-04-27T00:50:05.322Z,1.40
2023-04-27T00:51:06.181Z,1.40
2023-04-27T00:52:07.064Z,1.40
2023-04-27T00:53:07.981Z,1.50
2023-04-27T00:54:08.832Z,1.30
2023-04-27T00:55:09.714Z,1.50
2023-04-27T00:56:10.593Z,1.20
2023-04-27T00:57:11.485Z,1.10
2023-04-27T00:58:12.367Z,1.50
2023-04-27T00:59:13.460Z,1.50
2023-04-27T01:00:14.033Z,1.20
2023-04-27T01:01:14.926Z,1.20
2023-04-27T01:02:15.781Z,1.30
2023-04-27T01:03:16.793Z,1.20
2023-04-27T01:04:17.814Z,1.40
2023-04-27T01:05:18.324Z,1.20
2023-04-27T01:06:19.177Z,1.30
2023-04-27T01:07:20.103Z,1.10
2023-04-27T01:08:20.976Z,1.30
2023-04-27T01:09:21.852Z,1.50
2023-04-27T01:10:22.722Z,1.30
2023-04-27T01:11:23.609Z,1.20
2023-04-27T01:12:24.500Z,1.20
2023-04-27T01:13:25.401Z,1.20
2023-04-27T01:14:26.270Z,1.30
2023-04-27T01:15:27.193Z,1.40
2023-04-27T01:16:28.082Z,1.30
2023-04-27T01:17:28.981Z,1.30
2023-04-27T01:18:29.817Z,1.30
2023-04-27T01:19:30.700Z,1.40
2023-04-27T01:20:31.595Z,1.30
2023-04-27T01:21:32.502Z,1.30
2023-04-27T01:22:33.372Z,1.60
2023-04-27T01:23:34.260Z,1.30
2023-04-27T01:24:35.126Z,1.20
2023-04-27T01:25:36.018Z,1.30
2023-04-27T01:26:36.887Z,1.50
2023-04-27T01:27:37.799Z,1.40
2023-04-27T01:28:38.701Z,1.30
2023-04-27T01:29:39.601Z,1.30
2023-04-27T01:30:40.373Z,1.20
2023-04-27T01:31:41.278Z,1.30
2023-04-27T01:32:42.223Z,1.40
2023-04-27T01:33:43.057Z,1.50
2023-04-27T01:34:43.953Z,1.40
2023-04-27T01:35:44.840Z,1.40
2023-04-27T01:36:45.698Z,1.30
2023-04-27T01:37:46.582Z,1.50
2023-04-27T01:38:47.453Z,1.30
2023-04-27T01:39:48.332Z,1.40
2023-04-27T01:40:49.213Z,1.30
2023-04-27T01:41:50.098Z,1.40
2023-04-27T01:42:50.974Z,1.20
2023-04-27T01:43:51.854Z,1.30
2023-04-27T01:44:52.727Z,1.40
2023-04-27T01:45:53.649Z,1.40
2023-04-27T01:46:54.485Z,1.20
2023-04-27T01:47:55.393Z,1.30
2023-04-27T01:48:56.316Z,1.40
2023-04-27T01:49:57.183Z,1.30
2023-04-27T01:50:58.075Z,1.40
2023-04-27T01:51:58.932Z,1.30
2023-04-27T01:52:59.832Z,1.60
2023-04-27T01:54:00.721Z,1.10
2023-04-27T01:55:01.591Z,1.20
2023-04-27T01:56:02.474Z,1.40
2023-04-27T01:57:03.342Z,1.30
2023-04-27T01:58:04.257Z,1.30
2023-04-27T01:59:05.130Z,1.30
2023-04-27T02:00:06.040Z,1.30
2023-04-27T02:01:06.892Z,1.30
2023-04-27T02:02:07.873Z,1.20
2023-04-27T02:03:08.826Z,1.40
2023-04-27T02:04:09.487Z,1.30
2023-04-27T02:05:09.899Z,1.40
2023-04-27T02:06:10.818Z,1.30
2023-04-27T02:07:11.655Z,1.30
2023-04-27T02:08:12.546Z,1.20
2023-04-27T02:09:13.663Z,1.30
2023-04-27T02:10:14.175Z,1.20
2023-04-27T02:11:15.045Z,1.30
2023-04-27T02:12:15.945Z,1.40
2023-04-27T02:13:16.824Z,1.40
2023-04-27T02:14:17.692Z,1.20
2023-04-27T02:15:18.564Z,1.20
2023-04-27T02:16:19.464Z,1.30
2023-04-27T02:17:20.314Z,1.50
2023-04-27T02:18:21.218Z,1.40
2023-04-27T02:19:22.092Z,1.40
2023-04-27T02:20:22.970Z,1.40
2023-04-27T02:21:23.877Z,1.00
2023-04-27T02:22:24.736Z,1.10
2023-04-27T02:23:25.632Z,1.20
2023-04-27T02:24:26.543Z,1.70
2023-04-27T02:25:27.392Z,1.30
2023-04-27T02:26:28.238Z,1.50
2023-04-27T02:27:29.124Z,1.20
2023-04-27T02:28:30.008Z,1.20
2023-04-27T02:29:30.682Z,1.30
2023-04-27T02:30:31.467Z,1.30
2023-04-27T02:31:32.390Z,1.30
2023-04-27T02:32:33.266Z,1.30
2023-04-27T02:33:34.142Z,1.30
2023-04-27T02:34:35.037Z,1.20
2023-04-27T02:35:35.895Z,1.20
2023-04-27T02:36:36.809Z,1.20
2023-04-27T02:37:37.660Z,1.40
2023-04-27T02:38:38.547Z,1.30
2023-04-27T02:39:39.419Z,1.30
2023-04-27T02:40:40.301Z,1.30
2023-04-27T02:41:41.170Z,1.30
2023-04-27T02:42:42.067Z,1.20
2023-04-27T02:43:42.957Z,1.20
2023-04-27T02:44:43.833Z,1.30
2023-04-27T02:45:44.707Z,1.30
2023-04-27T02:46:45.618Z,1.40
2023-04-27T02:47:46.517Z,1.40
2023-04-27T02:48:47.368Z,1.60
2023-04-27T02:49:48.243Z,1.50
2023-04-27T02:50:49.133Z,1.30
2023-04-27T02:51:50.028Z,1.50
2023-04-27T02:52:50.884Z,1.60
2023-04-27T02:53:51.416Z,1.50
2023-04-27T02:54:52.308Z,1.50
2023-04-27T02:55:53.184Z,1.50
2023-04-27T02:56:54.080Z,1.70
2023-04-27T02:57:54.948Z,1.40
2023-04-27T02:58:55.832Z,1.50
2023-04-27T02:59:56.473Z,1.50
2023-04-27T03:00:57.376Z,1.30
2023-04-27T03:01:58.228Z,1.40
2023-04-27T03:02:59.224Z,1.50
2023-04-27T03:03:59.857Z,1.50
2023-04-27T03:05:00.364Z,1.50
2023-04-27T03:06:01.254Z,1.30
2023-04-27T03:07:02.143Z,1.40
2023-04-27T03:08:03.007Z,1.40
2023-04-27T03:09:03.903Z,1.40
2023-04-27T03:10:04.787Z,1.60
2023-04-27T03:11:05.659Z,1.50
2023-04-27T03:12:06.563Z,1.30
2023-04-27T03:13:07.454Z,1.50
2023-04-27T03:14:08.359Z,1.50
2023-04-27T03:15:09.253Z,1.60
2023-04-27T03:16:10.202Z,1.40
2023-04-27T03:17:11.062Z,1.50
2023-04-27T03:18:11.966Z,1.40
2023-04-27T03:19:13.039Z,1.40
2023-04-27T03:20:13.496Z,1.70
2023-04-27T03:21:14.449Z,1.50
2023-04-27T03:22:15.471Z,1.50
2023-04-27T03:23:16.311Z,1.40
2023-04-27T03:24:17.211Z,1.60
2023-04-27T03:25:18.076Z,1.70
2023-04-27T03:26:18.964Z,1.60
2023-04-27T03:27:19.859Z,1.70
2023-04-27T03:28:20.735Z,1.70
2023-04-27T03:29:21.643Z,1.50
2023-04-27T03:30:22.500Z,1.60
2023-04-27T03:31:23.436Z,1.60
2023-04-27T03:32:24.277Z,1.60
2023-04-27T03:33:25.159Z,1.40
2023-04-27T03:34:26.045Z,1.50
2023-04-27T03:35:26.929Z,1.50
2023-04-27T03:36:27.815Z,1.50
2023-04-27T03:37:28.719Z,1.30
2023-04-27T03:38:29.582Z,1.40
2023-04-27T03:39:30.464Z,1.50
2023-04-27T03:40:31.348Z,1.50
2023-04-27T03:41:32.226Z,1.40
2023-04-27T03:42:33.140Z,1.50
2023-04-27T03:43:33.998Z,1.50
2023-04-27T03:44:34.883Z,1.70
2023-04-27T03:45:35.809Z,1.70
2023-04-27T03:46:36.663Z,1.50
2023-04-27T03:47:37.575Z,1.50
2023-04-27T03:48:38.513Z,1.40
2023-04-27T03:49:39.338Z,1.50
2023-04-27T03:50:40.273Z,1.50
2023-04-27T03:51:41.142Z,1.50
2023-04-27T03:52:41.994Z,1.40
2023-04-27T03:53:42.857Z,1.70
2023-04-27T03:54:43.761Z,1.50
2023-04-27T03:55:44.646Z,1.50
2023-04-27T03:56:45.484Z,1.30
2023-04-27T03:57:46.320Z,1.40
2023-04-27T03:58:47.144Z,1.60
2023-04-27T03:59:47.984Z,1.60
2023-04-27T04:00:48.836Z,2.00
2023-04-27T04:01:49.761Z,6.80
2023-04-27T04:02:50.727Z,6.60
2023-04-27T04:03:51.302Z,4.80
2023-04-27T04:04:51.800Z,3.50
2023-04-27T04:05:52.649Z,3.30
2023-04-27T04:06:53.467Z,2.20
2023-04-27T04:07:54.311Z,2.00
2023-04-27T04:08:55.142Z,1.80
2023-04-27T04:09:55.988Z,1.70
2023-04-27T04:10:56.805Z,1.60
2023-04-27T04:11:57.704Z,1.60
2023-04-27T04:12:58.629Z,1.60
2023-04-27T04:13:59.569Z,1.40
2023-04-27T04:15:00.680Z,1.80
2023-04-27T04:16:01.087Z,1.50
2023-04-27T04:17:01.911Z,1.60
2023-04-27T04:18:02.802Z,1.40
2023-04-27T04:19:03.628Z,1.60
2023-04-27T04:20:04.466Z,1.60
2023-04-27T04:21:05.281Z,1.40
2023-04-27T04:22:06.110Z,1.60
2023-04-27T04:23:07.098Z,1.50
2023-04-27T04:24:07.884Z,1.70
2023-04-27T04:25:08.733Z,1.80
2023-04-27T04:26:09.543Z,1.60
2023-04-27T04:27:10.360Z,1.60
2023-04-27T04:28:11.195Z,1.40
2023-04-27T04:29:12.207Z,1.40
2023-04-27T04:30:12.618Z,1.60
2023-04-27T04:31:13.451Z,1.50
2023-04-27T04:32:14.283Z,1.60
2023-04-27T04:33:15.088Z,1.60
2023-04-27T04:34:15.944Z,1.50
2023-04-27T04:35:16.755Z,1.80
2023-04-27T04:36:17.580Z,1.60
2023-04-27T04:37:18.427Z,1.50
2023-04-27T04:38:19.310Z,1.60
2023-04-27T04:39:20.133Z,1.80
2023-04-27T04:40:20.949Z,1.70
2023-04-27T04:41:21.781Z,1.80
2023-04-27T04:42:22.608Z,1.80
2023-04-27T04:43:23.441Z,1.70
2023-04-27T04:44:24.274Z,1.80
2023-04-27T04:45:25.124Z,1.60
2023-04-27T04:46:25.971Z,1.80
2023-04-27T04:47:26.800Z,2.10
2023-04-27T04:48:27.613Z,1.70
2023-04-27T04:49:28.451Z,1.70
2023-04-27T04:50:29.286Z,2.10
2023-04-27T04:51:30.115Z,2.20
2023-04-27T04:52:30.955Z,1.90
2023-04-27T04:53:31.801Z,1.70
2023-04-27T04:54:32.608Z,1.80
2023-04-27T04:55:33.451Z,1.80
2023-04-27T04:56:34.266Z,1.70
2023-04-27T04:57:35.104Z,1.50
2023-04-27T04:58:35.926Z,1.50
2023-04-27T04:59:36.778Z,1.90
2023-04-27T05:00:37.616Z,1.80
2023-04-27T05:01:38.472Z,2.30
2023-04-27T05:02:39.399Z,2.00
2023-04-27T05:03:40.309Z,1.70
2023-04-27T05:04:41.347Z,1.70
2023-04-27T05:05:41.713Z,1.60
2023-04-27T05:06:42.549Z,1.60
2023-04-27T05:07:43.386Z,1.80
2023-04-27T05:08:44.217Z,2.00
2023-04-27T05:09:45.061Z,2.80
2023-04-27T05:10:45.886Z,2.00
2023-04-27T05:11:46.725Z,1.70
2023-04-27T05:12:47.558Z,1.60
2023-04-27T05:13:48.393Z,1.50
2023-04-27T05:14:49.220Z,1.40
2023-04-27T05:15:50.089Z,1.80
2023-04-27T05:16:50.889Z,1.60
2023-04-27T05:17:51.729Z,1.90
2023-04-27T05:18:52.534Z,1.70
2023-04-27T05:19:53.376Z,1.50
2023-04-27T05:20:54.189Z,1.60
2023-04-27T05:21:55.031Z,1.60
2023-04-27T05:22:55.862Z,1.70
2023-04-27T05:23:56.705Z,1.70
2023-04-27T05:24:57.527Z,2.00
2023-04-27T05:25:58.336Z,1.60
2023-04-27T05:27:01.439Z,1.90
2023-04-27T05:28:00.025Z,2.10
2023-04-27T05:29:00.831Z,2.00
2023-04-27T05:30:01.669Z,2.00
2023-04-27T05:31:02.517Z,1.90
2023-04-27T05:32:03.392Z,2.20
2023-04-27T05:33:04.320Z,2.20
2023-04-27T05:34:05.201Z,2.10
2023-04-27T05:35:06.039Z,2.00
2023-04-27T05:36:06.855Z,2.00
2023-04-27T05:37:07.689Z,2.10
2023-04-27T05:38:08.511Z,2.10
2023-04-27T05:39:09.422Z,2.10
2023-04-27T05:40:10.240Z,2.10
2023-04-27T05:41:11.070Z,2.10
2023-04-27T05:42:11.894Z,2.10
2023-04-27T05:43:12.712Z,1.90
2023-04-27T05:44:13.549Z,1.90
2023-04-27T05:45:14.392Z,1.80
2023-04-27T05:46:15.296Z,2.00
2023-04-27T05:47:16.179Z,1.70
2023-04-27T05:48:16.955Z,1.80
2023-04-27T05:49:17.775Z,1.70
2023-04-27T05:50:18.616Z,1.50
2023-04-27T05:51:19.451Z,2.60
2023-04-27T05:52:20.278Z,2.10
2023-04-27T05:53:21.159Z,2.10
2023-04-27T05:54:21.964Z,1.90
2023-04-27T05:55:22.800Z,1.80
2023-04-27T05:56:23.622Z,2.00
2023-04-27T05:57:24.512Z,1.90
2023-04-27T05:58:25.299Z,1.70
2023-04-27T05:59:26.119Z,1.70
2023-04-27T06:00:26.963Z,1.70
2023-04-27T06:01:27.791Z,1.90
2023-04-27T06:02:28.464Z,1.80
2023-04-27T06:03:29.141Z,1.90
2023-04-27T06:04:29.758Z,1.80
2023-04-27T06:05:30.201Z,2.00
2023-04-27T06:06:30.998Z,1.80
2023-04-27T06:07:31.837Z,2.00
2023-04-27T06:08:32.653Z,2.10
2023-04-27T06:09:33.494Z,2.00
2023-04-27T06:10:34.323Z,2.10
2023-04-27T06:11:35.155Z,1.70
2023-04-27T06:12:35.986Z,2.00
2023-04-27T06:13:36.814Z,2.00
2023-04-27T06:14:37.661Z,1.60
2023-04-27T06:15:38.543Z,1.80
2023-04-27T06:16:39.329Z,1.70
2023-04-27T06:17:40.204Z,1.70
2023-04-27T06:18:41.057Z,1.70
2023-04-27T06:19:41.898Z,1.90
2023-04-27T06:20:42.725Z,1.80
2023-04-27T06:21:43.559Z,1.70
2023-04-27T06:22:44.393Z,2.00
2023-04-27T06:23:45.213Z,1.70
2023-04-27T06:24:46.201Z,1.60
2023-04-27T06:25:46.984Z,1.60
2023-04-27T06:26:47.801Z,1.90
2023-04-27T06:27:48.650Z,1.60
2023-04-27T06:28:49.461Z,1.70
2023-04-27T06:29:50.284Z,1.70
2023-04-27T06:30:51.125Z,1.60
2023-04-27T06:31:51.995Z,1.60
2023-04-27T06:32:52.832Z,1.70
2023-04-27T06:33:53.624Z,1.80
2023-04-27T06:34:54.450Z,1.60
2023-04-27T06:35:55.284Z,2.30
2023-04-27T06:36:56.120Z,1.70
2023-04-27T06:37:56.963Z,1.80
2023-04-27T06:38:57.783Z,1.90
2023-04-27T06:39:58.629Z,1.70
2023-04-27T06:40:59.445Z,1.60
2023-04-27T06:42:00.275Z,2.80
2023-04-27T06:43:01.100Z,1.60
2023-04-27T06:44:01.928Z,1.70
2023-04-27T06:45:02.764Z,1.70
2023-04-27T06:46:03.617Z,1.90
2023-04-27T06:47:04.445Z,2.40
2023-04-27T06:48:05.347Z,2.40
2023-04-27T06:49:06.139Z,2.30
2023-04-27T06:50:06.973Z,2.40
2023-04-27T06:51:07.829Z,2.50
2023-04-27T06:52:08.643Z,2.30
2023-04-27T06:53:09.460Z,2.00
2023-04-27T06:54:10.300Z,2.00
2023-04-27T06:55:11.161Z,1.90
2023-04-27T06:56:11.971Z,2.20
2023-04-27T06:57:12.809Z,1.90
2023-04-27T06:58:13.648Z,2.60
2023-04-27T06:59:14.648Z,4.90
2023-04-27T07:00:15.140Z,8.80
2023-04-27T07:01:16.011Z,6.60
2023-04-27T07:02:16.828Z,15.40
2023-04-27T07:03:17.758Z,24.40
2023-04-27T07:04:18.731Z,38.00
2023-04-27T07:05:19.601Z,22.80
2023-04-27T07:06:20.402Z,14.60
2023-04-27T07:07:21.233Z,15.00
2023-04-27T07:08:22.063Z,27.30
2023-04-27T07:10:23.704Z,42.60
2023-04-27T07:11:24.508Z,41.60
2023-04-27T07:12:25.352Z,35.10
2023-04-27T07:13:26.192Z,9.80
2023-04-27T07:14:27.007Z,4.30
2023-04-27T07:15:27.840Z,3.10
2023-04-27T07:16:28.741Z,2.90
2023-04-27T07:17:29.702Z,3.00
2023-04-27T07:18:30.478Z,2.90
2023-04-27T07:19:31.306Z,3.00
2023-04-27T07:20:32.134Z,2.40
2023-04-27T07:21:33.161Z,2.10
2023-04-27T07:22:33.939Z,2.40
2023-04-27T07:23:34.764Z,2.40
2023-04-27T07:24:35.601Z,2.20
2023-04-27T07:25:36.463Z,2.00
2023-04-27T07:26:37.253Z,2.10
2023-04-27T07:27:38.100Z,2.20
2023-04-27T07:28:38.920Z,2.00
2023-04-27T07:29:39.747Z,2.20
2023-04-27T07:30:40.583Z,2.00
2023-04-27T07:31:41.505Z,3.10
2023-04-27T07:32:42.428Z,2.80
2023-04-27T07:33:43.247Z,2.30
2023-04-27T07:34:52.705Z,2.70
2023-04-27T07:35:45.791Z,2.10
2023-04-27T07:36:45.633Z,2.50
2023-04-27T07:37:46.458Z,2.40
2023-04-27T07:38:47.310Z,2.10
2023-04-27T07:39:48.118Z,2.00
2023-04-27T07:40:48.973Z,1.70
2023-04-27T07:41:49.782Z,1.80
2023-04-27T07:42:50.611Z,1.60
2023-04-27T07:43:51.436Z,2.00
2023-04-27T07:44:52.309Z,1.80
2023-04-27T07:45:53.164Z,1.90
2023-04-27T07:46:53.979Z,1.90
2023-04-27T07:47:56.435Z,2.00
2023-04-27T07:48:55.527Z,1.80
2023-04-27T07:49:56.340Z,1.70
2023-04-27T07:50:57.166Z,1.80
2023-04-27T07:51:58.012Z,1.90
2023-04-27T07:52:58.910Z,2.10
2023-04-27T07:53:59.680Z,1.90
2023-04-27T07:55:00.532Z,1.90
2023-04-27T07:56:01.369Z,1.90
2023-04-27T07:57:02.240Z,2.00
2023-04-27T07:58:03.048Z,2.00
2023-04-27T07:59:03.865Z,1.80
2023-04-27T08:00:04.768Z,2.00
2023-04-27T08:01:05.553Z,1.80
2023-04-27T08:02:17.612Z,1.80
2023-04-27T08:03:08.581Z,1.80
2023-04-27T08:04:08.330Z,1.80
2023-04-27T08:05:09.243Z,1.50
2023-04-27T08:06:09.752Z,1.80
2023-04-27T08:07:10.598Z,1.70
2023-04-27T08:08:11.397Z,1.90
2023-04-27T08:09:11.908Z,1.70
2023-04-27T08:10:12.277Z,1.40
2023-04-27T08:11:13.239Z,1.80
2023-04-27T08:12:14.055Z,1.50
2023-04-27T08:13:14.858Z,1.80
2023-04-27T08:14:15.682Z,1.60
2023-04-27T08:15:16.512Z,1.80
2023-04-27T08:16:17.357Z,2.00
2023-04-27T08:17:18.185Z,1.60
2023-04-27T08:18:19.051Z,1.70
2023-04-27T08:19:19.891Z,1.60
2023-04-27T08:20:20.747Z,1.50
2023-04-27T08:21:21.561Z,1.50
2023-04-27T08:22:22.385Z,1.60
2023-04-27T08:23:23.218Z,1.70
2023-04-27T08:24:24.089Z,1.80
2023-04-27T08:25:24.878Z,1.60
2023-04-27T08:26:26.475Z,1.50
2023-04-27T08:27:26.278Z,1.60
2023-04-27T08:28:27.257Z,1.80
2023-04-27T08:29:29.121Z,1.60
2023-04-27T08:30:28.700Z,1.60
2023-04-27T08:31:29.565Z,1.60
2023-04-27T08:32:30.405Z,1.60
2023-04-27T08:33:31.202Z,1.40
2023-04-27T08:34:32.053Z,1.70
2023-04-27T08:35:32.864Z,1.50
2023-04-27T08:36:33.691Z,1.50
2023-04-27T08:37:34.533Z,1.30
2023-04-27T08:38:35.361Z,1.60
2023-04-27T08:39:36.186Z,1.60
2023-04-27T08:40:37.011Z,1.70
2023-04-27T08:41:38.001Z,1.30
2023-04-27T08:42:38.770Z,1.70
2023-04-27T08:43:39.597Z,1.50
2023-04-27T08:44:40.430Z,1.50
2023-04-27T08:45:41.272Z,1.50
2023-04-27T08:46:42.181Z,1.50
2023-04-27T08:47:44.001Z,1.40
2023-04-27T08:48:43.954Z,1.50
2023-04-27T08:49:44.781Z,1.60
2023-04-27T08:50:45.632Z,1.40
2023-04-27T08:51:46.445Z,1.40
2023-04-27T08:52:47.275Z,1.50
2023-04-27T08:53:48.107Z,1.20
2023-04-27T08:54:48.938Z,1.30
2023-04-27T08:55:49.762Z,1.40
2023-04-27T08:56:50.735Z,1.40
2023-04-27T08:57:51.520Z,1.30
2023-04-27T08:58:52.351Z,1.20
2023-04-27T08:59:53.172Z,1.30
2023-04-27T09:00:53.997Z,1.60
2023-04-27T09:01:54.842Z,1.30
2023-04-27T09:02:55.801Z,1.30
2023-04-27T09:03:56.458Z,1.20
2023-04-27T09:04:57.202Z,1.40
2023-04-27T09:06:04.470Z,1.50
2023-04-27T09:06:59.334Z,1.30
2023-04-27T09:07:59.180Z,1.40
2023-04-27T09:09:00.025Z,1.30
2023-04-27T09:10:00.853Z,1.30
2023-04-27T09:11:01.690Z,1.50
2023-04-27T09:12:02.540Z,1.50
2023-04-27T09:13:03.366Z,1.70
2023-04-27T09:14:04.185Z,1.50
2023-04-27T09:15:05.026Z,1.40
2023-04-27T09:16:05.874Z,1.30
2023-04-27T09:17:06.730Z,1.20
2023-04-27T09:18:07.570Z,1.30
2023-04-27T09:19:08.386Z,1.40
2023-04-27T09:20:09.297Z,1.40
2023-04-27T09:21:10.097Z,1.50
2023-04-27T09:22:10.921Z,1.60
2023-04-27T09:23:11.770Z,1.40
2023-04-27T09:24:12.661Z,1.30
2023-04-27T09:25:13.431Z,1.40
2023-04-27T09:26:14.263Z,1.20
2023-04-27T09:27:15.116Z,1.40
2023-04-27T09:28:15.927Z,1.30
2023-04-27T09:29:16.757Z,1.40
2023-04-27T09:30:17.601Z,1.40
2023-04-27T09:31:18.452Z,1.30
2023-04-27T09:32:19.240Z,1.50
2023-04-27T09:33:20.088Z,1.50
2023-04-27T09:34:20.920Z,1.30
2023-04-27T09:35:21.757Z,1.30
2023-04-27T09:36:22.578Z,1.30
2023-04-27T09:37:23.401Z,1.20
2023-04-27T09:38:24.238Z,1.40
2023-04-27T09:39:25.065Z,1.20
2023-04-27T09:40:25.896Z,1.10
2023-04-27T09:41:26.734Z,1.10
2023-04-27T09:42:27.583Z,1.20
2023-04-27T09:43:28.430Z,1.10
2023-04-27T09:44:29.245Z,1.20
2023-04-27T09:45:30.186Z,1.10
2023-04-27T09:46:31.113Z,1.20
2023-04-27T09:47:31.665Z,1.10
2023-04-27T09:48:32.573Z,1.30
2023-04-27T09:49:33.410Z,1.10
2023-04-27T09:51:35.147Z,1.10
2023-04-27T09:52:35.975Z,1.10
2023-04-27T09:53:36.832Z,1.10
2023-04-27T09:54:37.655Z,1.40
2023-04-27T09:55:38.563Z,1.00
2023-04-27T09:56:39.338Z,1.20
2023-04-27T09:57:40.188Z,1.00
2023-04-27T09:58:41.033Z,1.20
2023-04-27T09:59:41.825Z,1.20
2023-04-27T10:00:42.664Z,1.10
2023-04-27T10:01:43.647Z,1.10
2023-04-27T10:02:52.765Z,1.00
2023-04-27T10:03:46.212Z,1.10
2023-04-27T10:04:46.104Z,1.10
2023-04-27T10:05:46.882Z,1.00
2023-04-27T10:06:47.708Z,0.90
2023-04-27T10:07:48.512Z,1.00
2023-04-27T10:08:49.343Z,0.90
2023-04-27T10:09:50.167Z,1.00
2023-04-27T10:10:51.009Z,1.10
2023-04-27T10:11:51.820Z,1.20
2023-04-27T10:12:52.667Z,1.20
2023-04-27T10:13:54.389Z,1.00
2023-04-27T10:14:54.213Z,1.00
2023-04-27T10:15:55.022Z,1.00
2023-04-27T10:16:55.875Z,1.00
2023-04-27T10:17:56.719Z,1.00
2023-04-27T10:18:57.515Z,1.00
2023-04-27T10:19:58.662Z,1.00
2023-04-27T10:20:59.079Z,1.10
2023-04-27T10:21:59.905Z,1.00
2023-04-27T10:23:00.745Z,1.10
2023-04-27T10:24:01.568Z,1.00
2023-04-27T10:25:02.393Z,1.20
2023-04-27T10:26:03.211Z,1.10
2023-04-27T10:27:04.047Z,1.00
2023-04-27T10:28:04.918Z,1.00
2023-04-27T10:29:05.704Z,1.10
2023-04-27T10:30:06.555Z,1.20
2023-04-27T10:31:07.441Z,1.20
2023-04-27T10:32:08.385Z,1.40
2023-04-27T10:33:09.271Z,1.20
2023-04-27T10:34:10.171Z,1.30
2023-04-27T10:35:11.003Z,1.20
2023-04-27T10:36:11.826Z,1.10
2023-04-27T10:37:12.662Z,1.40
2023-04-27T10:38:13.494Z,1.20
2023-04-27T10:39:14.520Z,1.50
2023-04-27T10:40:15.014Z,1.20
2023-04-27T10:41:15.838Z,1.30
2023-04-27T10:42:16.666Z,1.10
2023-04-27T10:43:17.657Z,1.10
2023-04-27T10:44:18.459Z,0.80
2023-04-27T10:45:19.297Z,0.90
2023-04-27T10:46:20.302Z,0.80
2023-04-27T10:47:20.655Z,1.10
2023-04-27T10:48:21.471Z,4.50
2023-04-27T10:49:22.308Z,3.20
2023-04-27T10:50:23.138Z,1.50
2023-04-27T10:51:23.973Z,0.90
2023-04-27T10:52:24.809Z,0.90
2023-04-27T10:53:25.630Z,1.00
2023-04-27T10:54:26.448Z,0.90
2023-04-27T10:55:27.276Z,0.80
2023-04-27T10:56:28.107Z,0.80
2023-04-27T10:57:28.942Z,0.80
2023-04-27T10:58:41.084Z,1.00
2023-04-27T10:59:31.483Z,1.00
2023-04-27T11:00:31.320Z,0.80
2023-04-27T11:01:32.187Z,0.80
2023-04-27T11:02:33.015Z,0.70
2023-04-27T11:03:34.041Z,0.80
2023-04-27T11:04:34.458Z,0.80
2023-04-27T11:05:35.280Z,0.70
2023-04-27T11:06:36.116Z,0.70
2023-04-27T11:07:36.946Z,0.80
2023-04-27T11:08:37.784Z,0.90
2023-04-27T11:09:38.677Z,0.80
2023-04-27T11:10:39.480Z,0.80
2023-04-27T11:11:40.285Z,0.90
2023-04-27T11:12:41.110Z,0.90
2023-04-27T11:13:41.988Z,1.10
2023-04-27T11:14:42.785Z,1.40
2023-04-27T11:15:43.672Z,2.20
2023-04-27T11:16:44.577Z,3.40
2023-04-27T11:17:45.495Z,1.20
2023-04-27T11:18:46.313Z,1.40
2023-04-27T11:19:47.144Z,1.10
2023-04-27T11:20:47.973Z,0.80
2023-04-27T11:21:48.805Z,0.80
2023-04-27T11:22:49.646Z,0.80
2023-04-27T11:23:50.471Z,0.70
2023-04-27T11:24:51.301Z,0.80
2023-04-27T11:25:52.128Z,0.80
2023-04-27T11:26:52.948Z,0.90
2023-04-27T11:27:53.774Z,1.20
2023-04-27T11:28:54.628Z,2.70
2023-04-27T11:29:55.435Z,3.10
2023-04-27T11:30:56.265Z,1.30
2023-04-27T11:31:57.254Z,1.40
2023-04-27T11:32:57.670Z,1.20
2023-04-27T11:33:58.495Z,1.50
2023-04-27T11:34:59.801Z,1.10
2023-04-27T11:36:00.088Z,0.90
2023-04-27T11:37:10.829Z,0.80
2023-04-27T11:38:02.632Z,0.90
2023-04-27T11:39:02.521Z,0.80
2023-04-27T11:40:03.317Z,0.90
2023-04-27T11:41:04.161Z,0.80
2023-04-27T11:42:04.977Z,2.20
2023-04-27T11:43:05.800Z,1.50
2023-04-27T11:44:06.679Z,0.90
2023-04-27T11:45:07.475Z,1.00
2023-04-27T11:46:08.318Z,1.00
2023-04-27T11:47:09.336Z,0.90
2023-04-27T11:48:09.698Z,2.90
2023-04-27T11:49:10.513Z,1.10
2023-04-27T11:50:11.371Z,0.90
2023-04-27T11:51:12.177Z,0.70
2023-04-27T11:52:12.996Z,0.80
2023-04-27T11:53:13.838Z,0.90
2023-04-27T11:54:14.912Z,0.80
2023-04-27T11:55:15.383Z,0.90
2023-04-27T11:56:16.213Z,3.40
2023-04-27T11:57:17.073Z,2.10
2023-04-27T11:58:17.876Z,1.80
2023-04-27T11:59:18.736Z,1.70
2023-04-27T12:00:19.541Z,1.40
2023-04-27T12:01:27.710Z,1.00
2023-04-27T12:02:22.191Z,0.90
2023-04-27T12:03:22.134Z,0.80
2023-04-27T12:04:22.784Z,0.70
2023-04-27T12:05:23.396Z,0.70
2023-04-27T12:07:24.813Z,0.80
2023-04-27T12:08:25.643Z,0.60
2023-04-27T12:09:26.487Z,0.70
2023-04-27T12:10:27.323Z,0.90
2023-04-27T12:11:28.190Z,1.30
2023-04-27T12:12:29.006Z,1.60
2023-04-27T12:13:29.823Z,1.40
2023-04-27T12:14:30.669Z,1.10
2023-04-27T12:15:31.480Z,1.50
2023-04-27T12:16:32.359Z,1.30
2023-04-27T12:17:33.226Z,1.30
2023-04-27T12:18:34.076Z,1.00
2023-04-27T12:19:34.889Z,1.30
2023-04-27T12:20:35.703Z,1.40
2023-04-27T12:21:36.538Z,1.30
2023-04-27T12:22:37.366Z,1.10
2023-04-27T12:23:38.215Z,0.90
2023-04-27T12:24:39.101Z,1.20
2023-04-27T12:25:39.931Z,1.00
2023-04-27T12:26:40.760Z,1.20
2023-04-27T12:27:41.600Z,1.00
2023-04-27T12:28:42.436Z,1.60
2023-04-27T12:29:43.317Z,1.00
2023-04-27T12:30:44.224Z,0.90
2023-04-27T12:31:45.154Z,0.90
2023-04-27T12:32:46.014Z,0.80
2023-04-27T12:33:46.808Z,0.70
2023-04-27T12:34:47.667Z,0.70
2023-04-27T12:35:48.505Z,0.80
2023-04-27T12:36:49.324Z,0.70
2023-04-27T12:37:50.140Z,0.80
2023-04-27T12:38:50.977Z,0.80
2023-04-27T12:39:51.807Z,0.90
2023-04-27T12:40:52.637Z,0.70
2023-04-27T12:41:53.475Z,0.80
2023-04-27T12:42:54.309Z,0.80
2023-04-27T12:43:55.189Z,0.70
2023-04-27T12:44:56.008Z,0.80
2023-04-27T12:45:56.852Z,0.80
2023-04-27T12:46:57.664Z,0.90
2023-04-27T12:48:03.879Z,0.70
2023-04-27T12:49:00.231Z,0.90
2023-04-27T12:50:00.097Z,0.80
2023-04-27T12:51:00.895Z,0.70
2023-04-27T12:52:01.732Z,0.80
2023-04-27T12:53:02.602Z,0.70
2023-04-27T12:54:03.418Z,0.90
2023-04-27T12:55:04.241Z,1.00
2023-04-27T12:56:05.068Z,1.40
2023-04-27T12:57:05.898Z,1.10
2023-04-27T12:58:06.727Z,0.70
2023-04-27T12:59:07.562Z,1.30
2023-04-27T13:00:08.416Z,1.40
2023-04-27T13:01:09.268Z,1.20
2023-04-27T13:02:10.132Z,1.10
2023-04-27T13:03:11.014Z,1.00
2023-04-27T13:04:12.191Z,0.70
2023-04-27T13:05:12.634Z,0.60
2023-04-27T13:06:13.464Z,0.70
2023-04-27T13:07:14.272Z,7.30
2023-04-27T13:08:15.100Z,3.70
2023-04-27T13:09:15.958Z,8.20
2023-04-27T13:10:16.785Z,6.20
2023-04-27T13:11:17.615Z,7.30
2023-04-27T13:12:18.450Z,5.60
2023-04-27T13:13:19.282Z,3.30
2023-04-27T13:14:20.116Z,1.90
2023-04-27T13:15:20.968Z,1.10
2023-04-27T13:16:21.868Z,0.90
2023-04-27T13:17:22.664Z,2.60
2023-04-27T13:18:23.500Z,1.10
2023-04-27T13:19:24.338Z,1.10
2023-04-27T13:20:25.168Z,1.00
2023-04-27T13:21:25.995Z,0.90
2023-04-27T13:22:26.828Z,1.80
2023-04-27T13:23:27.649Z,1.60
2023-04-27T13:24:28.497Z,1.10
2023-04-27T13:25:29.329Z,0.90
2023-04-27T13:26:30.141Z,1.80
2023-04-27T13:27:30.968Z,2.70
2023-04-27T13:28:31.872Z,3.90
2023-04-27T13:29:32.709Z,3.20
2023-04-27T13:30:33.559Z,2.70
2023-04-27T13:31:34.404Z,1.80
2023-04-27T13:32:35.215Z,2.20